Terminal Aerodrome Forecast
Issued by NWS

Home | Current Version | Previous Version | Text Only | Print | Product List | Glossary On
Versions: 1 2 3 4 5 6 7 8 9 10 11 12 13
748
FTUS45 KPSR 201135
TAFIPL
TAF
KIPL 201135Z 2012/2112 27012KT P6SM BKN120 OVC250
     FM201800 21018G26KT P6SM SCT050 OVC100
     FM202300 20025G35KT P6SM VCSH BKN050 OVC080
     FM210300 24024G32KT P6SM -SHRA OVC050
     FM210900 28020G28KT P6SM VCSH SCT060 BKN120=

USA.gov is the U.S. government's official web portal to all federal, state and local government web resources and services.